createdAt,value
2016-08-07T00:00:12.003Z,99.99
2016-08-07T00:01:24.971Z,99.99
2016-08-07T00:02:37.934Z,99.99
2016-08-07T00:03:50.906Z,99.99
2016-08-07T00:05:03.929Z,99.99
2016-08-07T00:06:16.894Z,99.99
2016-08-07T00:07:29.859Z,99.99
2016-08-07T00:08:42.821Z,99.99
2016-08-07T00:09:55.797Z,99.99
2016-08-07T00:11:08.971Z,99.99
2016-08-07T00:12:21.937Z,99.99
2016-08-07T00:13:34.903Z,99.99
2016-08-07T00:14:47.889Z,99.99
2016-08-07T00:16:00.853Z,99.99
2016-08-07T00:17:13.816Z,99.99
2016-08-07T00:18:26.980Z,99.99
2016-08-07T00:19:39.962Z,99.99
2016-08-07T00:22:03.125Z,99.99
2016-08-07T00:23:16.089Z,99.99
2016-08-07T00:24:29.057Z,99.99
2016-08-07T00:25:42.021Z,99.99
2016-08-07T00:26:55.197Z,99.99
2016-08-07T00:28:08.167Z,99.99
2016-08-07T00:29:21.325Z,99.99
2016-08-07T00:30:34.299Z,99.99
2016-08-07T00:31:47.266Z,99.99
2016-08-07T00:33:00.434Z,99.99
2016-08-07T00:34:13.614Z,99.99
2016-08-07T00:35:26.587Z,99.99
2016-08-07T00:36:39.761Z,99.99
2016-08-07T00:37:52.748Z,99.99
2016-08-07T00:39:04.990Z,99.99
2016-08-07T00:40:17.950Z,99.99
2016-08-07T00:41:30.915Z,99.99
2016-08-07T00:42:43.897Z,99.99
2016-08-07T00:43:56.866Z,99.99
2016-08-07T00:45:09.853Z,99.99
2016-08-07T00:46:23.217Z,99.99
2016-08-07T00:47:36.683Z,99.99
2016-08-07T00:48:49.660Z,99.99
2016-08-07T00:50:02.691Z,99.99
2016-08-07T00:51:15.870Z,99.99
2016-08-07T00:52:28.902Z,99.99
2016-08-07T00:53:41.878Z,99.99
2016-08-07T00:54:54.912Z,99.99
2016-08-07T00:56:07.881Z,99.99
2016-08-07T00:57:20.843Z,99.99
2016-08-07T00:58:33.808Z,99.99
2016-08-07T00:59:46.979Z,99.99
2016-08-07T01:00:59.943Z,99.99
2016-08-07T01:02:13.002Z,99.99
2016-08-07T01:03:26.182Z,99.99
2016-08-07T01:04:39.550Z,99.99
2016-08-07T01:05:52.564Z,99.99
2016-08-07T01:07:05.068Z,99.99
2016-08-07T01:08:18.984Z,99.99
2016-08-07T01:09:32.159Z,99.99
2016-08-07T01:10:45.136Z,99.99
2016-08-07T01:11:58.302Z,99.99
2016-08-07T01:13:11.283Z,99.99
2016-08-07T01:14:24.322Z,99.99
2016-08-07T01:15:37.286Z,99.99
2016-08-07T01:16:50.455Z,99.99
2016-08-07T01:18:03.985Z,99.99
2016-08-07T01:19:16.954Z,99.99
2016-08-07T01:20:29.934Z,99.99
2016-08-07T01:21:43.100Z,99.99
2016-08-07T01:22:56.078Z,99.99
2016-08-07T01:24:09.041Z,99.99
2016-08-07T01:25:22.005Z,99.99
2016-08-07T01:26:35.181Z,99.99
2016-08-07T01:27:48.170Z,99.99
2016-08-07T01:29:01.149Z,99.99
2016-08-07T01:30:14.977Z,99.99
2016-08-07T01:31:28.765Z,99.99
2016-08-07T01:32:41.731Z,99.99
2016-08-07T01:33:54.697Z,99.99
2016-08-07T01:35:07.803Z,99.99
2016-08-07T01:37:32.803Z,99.99
2016-08-07T01:38:45.994Z,99.99
2016-08-07T01:39:58.964Z,99.99
2016-08-07T01:41:12.235Z,99.99
2016-08-07T01:42:25.200Z,99.99
2016-08-07T01:43:38.203Z,99.99
2016-08-07T01:44:51.186Z,99.99
2016-08-07T01:46:04.160Z,99.99
2016-08-07T01:47:17.138Z,99.99
2016-08-07T01:48:30.113Z,99.99
2016-08-07T01:49:43.085Z,99.99
2016-08-07T01:50:56.066Z,99.99
2016-08-07T01:52:09.119Z,99.99
2016-08-07T01:53:22.086Z,99.99
2016-08-07T01:54:35.098Z,99.99
2016-08-07T01:55:48.064Z,99.99
2016-08-07T01:57:01.029Z,99.99
2016-08-07T01:58:13.999Z,99.99
2016-08-07T01:59:26.965Z,99.99
2016-08-07T02:00:39.934Z,99.99
2016-08-07T02:01:53.162Z,99.99
2016-08-07T02:03:06.128Z,99.99
2016-08-07T02:04:19.104Z,99.99
2016-08-07T02:06:46.060Z,99.99
2016-08-07T02:07:59.064Z,99.99
2016-08-07T02:09:12.033Z,99.99
2016-08-07T02:10:25.220Z,99.99
2016-08-07T02:11:38.198Z,99.99
2016-08-07T02:12:51.164Z,99.99
2016-08-07T02:14:04.342Z,99.99
2016-08-07T02:15:17.307Z,99.99
2016-08-07T02:16:30.282Z,99.99
2016-08-07T02:17:43.254Z,99.99
2016-08-07T02:18:56.222Z,99.99
2016-08-07T02:20:09.193Z,99.99
2016-08-07T02:22:33.280Z,99.99
2016-08-07T02:23:46.272Z,99.99
2016-08-07T02:24:59.453Z,99.99
2016-08-07T02:26:12.441Z,99.99
2016-08-07T02:27:25.413Z,99.99
2016-08-07T02:28:38.420Z,99.99
2016-08-07T02:29:54.009Z,99.99
2016-08-07T02:31:07.309Z,99.99
2016-08-07T02:32:20.328Z,99.99
2016-08-07T02:33:33.346Z,99.99
2016-08-07T02:34:46.308Z,99.99
2016-08-07T02:35:59.277Z,99.99
2016-08-07T02:37:12.237Z,99.99
2016-08-07T02:38:25.207Z,99.99
2016-08-07T02:39:38.179Z,99.99
2016-08-07T02:40:51.342Z,99.99
2016-08-07T02:42:04.312Z,99.99
2016-08-07T02:43:17.286Z,99.99
2016-08-07T02:44:30.448Z,99.99
2016-08-07T02:45:43.421Z,99.99
2016-08-07T02:46:56.396Z,99.99
2016-08-07T02:48:09.366Z,99.99
2016-08-07T02:49:22.341Z,99.99
2016-08-07T02:50:35.311Z,99.99
2016-08-07T02:51:48.534Z,99.99
2016-08-07T02:53:01.490Z,99.99
2016-08-07T02:54:14.453Z,99.99
2016-08-07T02:55:27.680Z,99.99
2016-08-07T02:56:40.653Z,99.99
2016-08-07T02:57:53.628Z,99.99
2016-08-07T02:59:06.609Z,99.99
2016-08-07T03:00:19.591Z,99.99
2016-08-07T03:01:33.114Z,99.99
2016-08-07T03:02:46.109Z,99.99
2016-08-07T03:03:59.080Z,99.99
2016-08-07T03:05:12.109Z,99.99
2016-08-07T03:07:36.320Z,99.99
2016-08-07T03:08:49.298Z,99.99
2016-08-07T03:10:02.265Z,99.99
2016-08-07T03:11:15.531Z,99.99
2016-08-07T03:12:28.544Z,99.99
2016-08-07T03:13:41.524Z,99.99
2016-08-07T03:14:54.491Z,99.99
2016-08-07T03:16:07.537Z,99.99
2016-08-07T03:17:20.971Z,99.99
2016-08-07T03:18:33.940Z,99.99
2016-08-07T03:19:46.914Z,99.99
2016-08-07T03:20:59.872Z,99.99
2016-08-07T03:22:12.839Z,99.99
2016-08-07T03:23:26.009Z,99.99
2016-08-07T03:24:38.989Z,99.99
2016-08-07T03:25:52.360Z,99.99
2016-08-07T03:27:05.335Z,99.99
2016-08-07T03:28:18.310Z,99.99
2016-08-07T03:29:31.272Z,99.99
2016-08-07T03:30:44.441Z,99.99
2016-08-07T03:31:57.607Z,99.99
2016-08-07T03:33:10.575Z,99.99
2016-08-07T03:34:23.549Z,99.99
2016-08-07T03:35:36.518Z,99.99
2016-08-07T03:36:49.502Z,99.99
2016-08-07T03:38:02.643Z,99.99
2016-08-07T03:39:15.612Z,99.99
2016-08-07T03:40:28.609Z,99.99
2016-08-07T03:41:41.576Z,99.99
2016-08-07T03:42:54.543Z,99.99
2016-08-07T03:44:09.996Z,99.99
2016-08-07T03:45:22.967Z,99.99
2016-08-07T03:46:35.935Z,99.99
2016-08-07T03:47:48.913Z,99.99
2016-08-07T03:49:01.879Z,99.99
2016-08-07T03:50:14.846Z,99.99
2016-08-07T03:51:28.015Z,99.99
2016-08-07T03:52:39.591Z,99.99
2016-08-07T03:53:52.767Z,99.99
2016-08-07T03:55:05.763Z,99.99
2016-08-07T03:56:18.729Z,99.99
2016-08-07T03:57:31.697Z,99.99
2016-08-07T03:58:44.671Z,99.99
2016-08-07T03:59:57.843Z,99.99
2016-08-07T04:01:10.952Z,99.99
2016-08-07T04:02:23.944Z,99.99
2016-08-07T04:03:36.911Z,99.99
2016-08-07T04:04:49.876Z,99.99
2016-08-07T04:06:02.852Z,99.99
2016-08-07T04:07:15.857Z,99.99
2016-08-07T04:08:28.890Z,99.99
2016-08-07T04:09:41.854Z,99.99
2016-08-07T04:10:55.020Z,99.99
2016-08-07T04:12:08.700Z,99.99
2016-08-07T04:13:21.679Z,99.99
2016-08-07T04:14:34.840Z,99.99
2016-08-07T04:15:48.004Z,99.99
2016-08-07T04:17:00.982Z,99.99
2016-08-07T04:18:14.359Z,99.99
2016-08-07T04:19:27.345Z,99.99
2016-08-07T04:20:40.318Z,99.99
2016-08-07T04:23:05.199Z,99.99
2016-08-07T04:24:18.221Z,99.99
2016-08-07T04:25:31.186Z,99.99
2016-08-07T04:26:44.161Z,99.99
2016-08-07T04:27:57.126Z,99.99
2016-08-07T04:29:10.809Z,99.99
2016-08-07T04:30:23.775Z,99.99
2016-08-07T04:31:37.227Z,99.99
2016-08-07T04:32:50.203Z,99.99
2016-08-07T04:34:03.187Z,99.99
2016-08-07T04:35:16.170Z,99.99
2016-08-07T04:36:29.602Z,99.99
2016-08-07T04:37:43.947Z,99.99
2016-08-07T04:38:56.912Z,99.99
2016-08-07T04:40:09.889Z,99.99
2016-08-07T04:41:22.866Z,99.99
2016-08-07T04:42:36.032Z,99.99
2016-08-07T04:43:49.430Z,99.99
2016-08-07T04:45:02.402Z,99.99
2016-08-07T04:46:16.333Z,99.99
2016-08-07T04:47:29.299Z,99.99
2016-08-07T04:48:42.264Z,99.99
2016-08-07T04:49:55.231Z,99.99
2016-08-07T04:51:08.201Z,98.42
2016-08-07T04:52:21.240Z,99.37
2016-08-07T04:53:34.218Z,99.99
2016-08-07T04:54:47.183Z,98.52
2016-08-07T04:56:00.151Z,99.99
2016-08-07T04:57:13.337Z,99.99
2016-08-07T04:58:26.327Z,99.52
2016-08-07T04:59:39.296Z,99.99
2016-08-07T05:00:52.261Z,96.66
2016-08-07T05:02:05.446Z,95.98
2016-08-07T05:03:18.472Z,98.37
2016-08-07T05:04:31.460Z,95.84
2016-08-07T05:05:44.656Z,98.42
2016-08-07T05:08:08.746Z,95.61
2016-08-07T05:09:21.763Z,96.75
2016-08-07T05:10:34.731Z,96.84
2016-08-07T05:11:47.698Z,99.99
2016-08-07T05:13:00.871Z,96.37
2016-08-07T05:14:14.241Z,96.56
2016-08-07T05:15:27.207Z,95.41
2016-08-07T05:16:40.175Z,96.32
2016-08-07T05:17:53.354Z,95.75
2016-08-07T05:19:06.702Z,99.99
2016-08-07T05:20:19.688Z,99.99
2016-08-07T05:21:32.718Z,97.37
2016-08-07T05:22:45.706Z,95.17
2016-08-07T05:23:58.676Z,95.36
2016-08-07T05:25:11.852Z,95.27
2016-08-07T05:26:25.015Z,98.42
2016-08-07T05:27:37.992Z,96.7
2016-08-07T05:28:50.957Z,99.95
2016-08-07T05:30:03.926Z,97.85
2016-08-07T05:31:17.074Z,98.28
2016-08-07T05:32:30.039Z,99.38
2016-08-07T05:33:43.009Z,99.99
2016-08-07T05:34:55.984Z,99.99
2016-08-07T05:36:08.981Z,99.99
2016-08-07T05:38:33.943Z,99.99
2016-08-07T05:39:46.908Z,99.99
2016-08-07T05:40:59.885Z,99.99
2016-08-07T05:42:12.919Z,99.99
2016-08-07T05:43:25.900Z,99.99
2016-08-07T05:44:38.871Z,99.99
2016-08-07T05:45:51.850Z,98.47
2016-08-07T05:47:04.810Z,99.99
2016-08-07T05:48:18.176Z,99.99
2016-08-07T05:49:31.159Z,99.99
2016-08-07T05:50:44.134Z,99.99
2016-08-07T05:51:57.301Z,99.99
2016-08-07T05:53:10.287Z,99.99
2016-08-07T05:54:23.263Z,99.99
2016-08-07T05:55:36.230Z,99.99
2016-08-07T05:56:49.196Z,99.66
2016-08-07T05:58:02.163Z,97.37
2016-08-07T05:59:15.206Z,99.99
2016-08-07T06:00:28.187Z,99.28
2016-08-07T06:01:41.156Z,99.99
2016-08-07T06:02:54.152Z,98.9
2016-08-07T06:04:07.150Z,99.24
2016-08-07T06:05:20.341Z,95.46
2016-08-07T06:06:33.315Z,93.16
2016-08-07T06:07:46.313Z,91.15
2016-08-07T06:08:59.280Z,90.33
2016-08-07T06:10:12.313Z,90.43
2016-08-07T06:11:25.787Z,87.6
2016-08-07T06:12:38.975Z,90
2016-08-07T06:13:51.944Z,88.94
2016-08-07T06:15:05.172Z,88.46
2016-08-07T06:16:18.872Z,89.37
2016-08-07T06:17:32.065Z,89.18
2016-08-07T06:18:45.084Z,91.1
2016-08-07T06:19:58.070Z,90.09
2016-08-07T06:21:11.048Z,88.9
2016-08-07T06:23:35.159Z,89.18
2016-08-07T06:24:48.131Z,91.39
2016-08-07T06:26:01.106Z,90.72
2016-08-07T06:27:14.283Z,90.53
2016-08-07T06:28:27.269Z,89.57
2016-08-07T06:29:40.447Z,89.47
2016-08-07T06:30:53.631Z,89.18
2016-08-07T06:32:07.864Z,87.98
2016-08-07T06:33:21.047Z,86.97
2016-08-07T06:34:34.025Z,86.01
2016-08-07T06:35:47.954Z,86.88
2016-08-07T06:37:00.927Z,85.28
2016-08-07T06:38:13.923Z,84.42
2016-08-07T06:39:26.909Z,85.58
2016-08-07T06:40:39.906Z,83.6
2016-08-07T06:41:52.896Z,84.99
2016-08-07T06:43:05.922Z,82.63
2016-08-07T06:44:19.000Z,81.71
2016-08-07T06:45:32.176Z,78.15
2016-08-07T06:46:45.153Z,80.21
2016-08-07T06:47:58.345Z,79.96
2016-08-07T06:49:11.323Z,79.48
2016-08-07T06:50:24.313Z,78.46
2016-08-07T06:51:37.522Z,75.9
2016-08-07T06:52:50.509Z,77.83
2016-08-07T06:54:03.519Z,77.38
2016-08-07T06:55:17.314Z,78.44
2016-08-07T06:56:30.299Z,75.84
2016-08-07T06:57:43.491Z,74.14
2016-08-07T06:58:56.476Z,73.37
2016-08-07T07:00:09.468Z,71.58
2016-08-07T07:01:22.653Z,73.99
2016-08-07T07:02:35.636Z,73.06
2016-08-07T07:03:48.625Z,71.9
2016-08-07T07:05:01.623Z,70.16
2016-08-07T07:06:15.787Z,69.49
2016-08-07T07:08:40.114Z,69.68
2016-08-07T07:09:53.095Z,71.19
2016-08-07T07:11:07.898Z,74.43
2016-08-07T07:12:20.881Z,74.2
2016-08-07T07:13:33.879Z,72.66
2016-08-07T07:14:47.062Z,74.16
2016-08-07T07:16:00.043Z,75.9
2016-08-07T07:17:13.036Z,76.82
2016-08-07T07:18:26.026Z,76.44
2016-08-07T07:19:39.005Z,79.13
2016-08-07T07:20:51.997Z,77.59
2016-08-07T07:22:04.998Z,79.13
2016-08-07T07:23:17.981Z,80
2016-08-07T07:24:30.970Z,77.94
2016-08-07T07:25:43.951Z,79
2016-08-07T07:26:56.981Z,77.08
2016-08-07T07:28:09.961Z,80.63
2016-08-07T07:29:22.975Z,79.58
2016-08-07T07:30:35.969Z,78.96
2016-08-07T07:31:48.954Z,78.77
2016-08-07T07:33:01.933Z,81.17
2016-08-07T07:34:15.059Z,79.73
2016-08-07T07:35:28.055Z,81.02
2016-08-07T07:36:42.333Z,81.02
2016-08-07T07:37:55.322Z,80.63
2016-08-07T07:39:08.322Z,80.54
2016-08-07T07:40:21.328Z,80.69
2016-08-07T07:41:34.337Z,79.58
2016-08-07T07:42:47.328Z,78.96
2016-08-07T07:44:01.505Z,81.12
2016-08-07T07:45:14.587Z,80.69
2016-08-07T07:46:27.572Z,80.69
2016-08-07T07:47:40.554Z,79.92
2016-08-07T08:02:27.286Z,82.57
2016-08-07T08:03:40.470Z,81.99
2016-08-07T08:04:53.653Z,81.61
2016-08-07T08:06:06.630Z,83.25
2016-08-07T08:07:19.621Z,82.23
2016-08-07T08:08:33.008Z,80.36
2016-08-07T08:09:45.991Z,82.04
2016-08-07T08:10:58.976Z,82.48
2016-08-07T08:12:11.955Z,82.09
2016-08-07T08:13:24.935Z,81.56
2016-08-07T08:14:37.906Z,79.73
2016-08-07T08:15:51.092Z,79.05
2016-08-07T08:17:04.079Z,78.13
2016-08-07T08:18:17.065Z,79.67
2016-08-07T08:19:30.053Z,80.63
2016-08-07T08:20:43.025Z,79
2016-08-07T08:21:56.000Z,79.86
2016-08-07T08:23:09.185Z,80.15
2016-08-07T08:24:22.167Z,79.1
2016-08-07T08:25:35.160Z,78.81
2016-08-07T08:26:48.145Z,78.33
2016-08-07T08:28:01.114Z,79.38
2016-08-07T08:29:14.096Z,77.98
2016-08-07T08:30:27.079Z,80.48
2016-08-07T08:31:40.063Z,77.34
2016-08-07T08:32:53.432Z,75.99
2016-08-07T08:34:06.465Z,76.32
2016-08-07T08:35:19.654Z,76.71
2016-08-07T08:36:32.642Z,78.06
2016-08-07T08:37:45.635Z,75.84
2016-08-07T08:38:58.615Z,75.2
2016-08-07T08:40:11.601Z,74.43
2016-08-07T08:41:24.577Z,74.43
2016-08-07T08:42:37.758Z,76.17
2016-08-07T08:43:50.739Z,75.49
2016-08-07T08:45:03.926Z,74.43
2016-08-07T08:46:16.922Z,74.24
2016-08-07T08:47:29.911Z,76.36
2016-08-07T08:48:42.893Z,75.88
2016-08-07T08:49:55.870Z,75.45
2016-08-07T08:51:08.855Z,75.49
2016-08-07T08:52:21.848Z,75.49
2016-08-07T08:53:34.834Z,74.14
2016-08-07T08:54:47.810Z,75.01
2016-08-07T08:56:00.784Z,76.78
2016-08-07T08:57:13.770Z,74.57
2016-08-07T08:58:26.754Z,76.84
2016-08-07T08:59:39.747Z,76.75
2016-08-07T09:00:52.923Z,74.91
2016-08-07T09:02:05.940Z,75.3
2016-08-07T09:03:18.931Z,75.14
2016-08-07T09:04:31.909Z,74.21
2016-08-07T09:05:44.890Z,76.43
2016-08-07T09:06:57.862Z,74.6
2016-08-07T09:08:10.368Z,74.69
2016-08-07T09:09:23.546Z,73.58
2016-08-07T09:10:36.588Z,75.51
2016-08-07T09:11:49.597Z,73.86
2016-08-07T09:13:02.581Z,75.02
2016-08-07T09:14:15.961Z,74.83
2016-08-07T09:15:28.947Z,76.86
2016-08-07T09:16:42.154Z,76.86
2016-08-07T09:17:55.140Z,73.8
2016-08-07T09:19:08.329Z,71.39
2016-08-07T09:20:21.306Z,68.82
2016-08-07T09:21:34.294Z,70.17
2016-08-07T09:22:47.269Z,73.74
2016-08-07T09:24:00.255Z,73.01
2016-08-07T09:25:13.238Z,74.75
2016-08-07T09:26:26.229Z,70.43
2016-08-07T09:27:39.218Z,67.76
2016-08-07T09:28:52.203Z,67.11
2016-08-07T09:30:05.390Z,65.47
2016-08-07T09:31:18.372Z,69.15
2016-08-07T09:32:31.365Z,66.66
2016-08-07T09:33:44.349Z,66.11
2016-08-07T09:34:57.347Z,64.75
2016-08-07T09:36:10.338Z,66.3
2016-08-07T09:37:23.331Z,66.92
2016-08-07T09:38:35.851Z,64.5
2016-08-07T09:39:48.838Z,65.75
2016-08-07T09:41:01.829Z,67.02
2016-08-07T09:42:14.822Z,65.08
2016-08-07T09:43:28.010Z,68.76
2016-08-07T09:44:40.994Z,64.3
2016-08-07T09:45:53.974Z,66.27
2016-08-07T09:47:06.974Z,63.65
2016-08-07T09:48:19.972Z,64.72
2016-08-07T09:49:32.960Z,63.2
2016-08-07T09:50:45.955Z,63.29
2016-08-07T09:51:58.935Z,61.68
2016-08-07T09:53:11.933Z,61
2016-08-07T09:54:23.534Z,63.29
2016-08-07T09:55:36.522Z,65.24
2016-08-07T09:56:49.516Z,63.2
2016-08-07T09:58:02.499Z,66.11
2016-08-07T09:59:15.498Z,65.01
2016-08-07T10:00:28.484Z,65.01
2016-08-07T10:01:41.471Z,63.17
2016-08-07T10:02:54.455Z,64.23
2016-08-07T10:04:07.458Z,63.36
2016-08-07T10:05:20.447Z,65.89
2016-08-07T10:06:33.637Z,64.72
2016-08-07T10:07:46.621Z,63.95
2016-08-07T10:08:59.601Z,63.26
2016-08-07T10:10:12.596Z,64.43
2016-08-07T10:11:25.581Z,65.4
2016-08-07T10:12:38.578Z,65.2
2016-08-07T10:13:51.564Z,65.89
2016-08-07T10:15:04.554Z,63.85
2016-08-07T10:16:17.543Z,63.95
2016-08-07T10:17:30.733Z,65.33
2016-08-07T10:18:43.718Z,64.82
2016-08-07T10:19:56.710Z,64.04
2016-08-07T10:21:09.708Z,65.3
2016-08-07T10:22:22.894Z,64.72
2016-08-07T10:23:35.879Z,62.52
2016-08-07T10:24:48.869Z,63.2
2016-08-07T10:26:01.854Z,62.45
2016-08-07T10:27:14.853Z,60.51
2016-08-07T10:28:27.839Z,62.26
2016-08-07T10:29:41.035Z,65.66
2016-08-07T10:30:54.021Z,64.04
2016-08-07T10:32:07.008Z,62
2016-08-07T10:33:19.994Z,63.32
2016-08-07T10:34:33.290Z,64.78
2016-08-07T10:35:46.274Z,65.01
2016-08-07T10:36:59.284Z,68.7
2016-08-07T10:38:12.277Z,64.07
2016-08-07T10:39:25.465Z,65.92
2016-08-07T10:40:38.461Z,66.02
2016-08-07T10:41:51.654Z,65.4
2016-08-07T10:43:04.641Z,66.96
2016-08-07T10:44:17.638Z,66.37
2016-08-07T10:45:30.628Z,68.18
2016-08-07T10:46:43.616Z,67.41
2016-08-07T10:47:56.609Z,63.42
2016-08-07T10:49:09.603Z,63.04
2016-08-07T10:50:22.591Z,64.91
2016-08-07T10:51:35.586Z,64.43
2016-08-07T10:52:48.575Z,64.36
2016-08-07T10:54:01.565Z,62.32
2016-08-07T10:55:14.551Z,62.61
2016-08-07T10:56:27.538Z,61.83
2016-08-07T10:57:40.541Z,64.17
2016-08-07T10:58:53.535Z,63.49
2016-08-07T11:00:06.727Z,65.82
2016-08-07T11:01:19.707Z,63.97
2016-08-07T11:02:32.899Z,65.66
2016-08-07T11:03:45.904Z,63.42
2016-08-07T11:04:58.900Z,64.98
2016-08-07T11:06:11.881Z,62.74
2016-08-07T11:07:24.867Z,62.74
2016-08-07T11:09:50.140Z,60.11
2016-08-07T11:11:03.124Z,60.7
2016-08-07T11:12:16.123Z,61.08
2016-08-07T11:13:29.114Z,65.17
2016-08-07T11:14:42.100Z,65.37
2016-08-07T11:15:55.287Z,64.88
2016-08-07T11:17:08.893Z,66.05
2016-08-07T11:18:22.088Z,65.17
2016-08-07T11:19:35.083Z,66.27
2016-08-07T11:20:48.070Z,65.69
2016-08-07T11:22:01.068Z,63.26
2016-08-07T11:23:14.065Z,58.87
2016-08-07T11:24:27.053Z,62.19
2016-08-07T11:25:40.047Z,58.59
2016-08-07T11:26:53.043Z,63.35
2016-08-07T11:28:06.038Z,67.15
2016-08-07T11:29:19.039Z,59.56
2016-08-07T11:30:32.239Z,61.7
2016-08-07T11:31:45.219Z,68.8
2016-08-07T11:32:58.211Z,62.57
2016-08-07T11:34:11.208Z,61.54
2016-08-07T11:35:24.601Z,59.3
2016-08-07T11:36:37.591Z,65.11
2016-08-07T11:37:50.587Z,60.63
2016-08-07T11:39:03.589Z,65.5
2016-08-07T11:40:16.588Z,64.91
2016-08-07T11:41:29.797Z,64.91
2016-08-07T11:42:42.794Z,64.45
2016-08-07T11:43:55.777Z,63.68
2016-08-07T11:45:08.760Z,62.7
2016-08-07T11:46:21.743Z,65.11
2016-08-07T11:47:34.724Z,63.84
2016-08-07T11:48:47.707Z,63.97
2016-08-07T11:50:00.689Z,63.55
2016-08-07T11:51:13.672Z,63.65
2016-08-07T11:52:26.664Z,62.64
2016-08-07T11:53:39.665Z,66.05
2016-08-07T11:54:52.381Z,67.11
2016-08-07T11:56:05.558Z,67.8
2016-08-07T11:57:18.552Z,65.46
2016-08-07T11:58:31.735Z,65.17
2016-08-07T11:59:45.252Z,65.08
2016-08-07T12:00:58.681Z,66.05
2016-08-07T12:02:11.729Z,64.78
2016-08-07T12:03:24.924Z,67.05
2016-08-07T12:04:37.911Z,62.57
2016-08-07T12:05:51.100Z,62.38
2016-08-07T12:07:04.092Z,66.27
2016-08-07T12:08:17.088Z,63.84
2016-08-07T12:09:30.081Z,65.59
2016-08-07T12:10:43.136Z,66.37
2016-08-07T12:11:56.119Z,64.42
2016-08-07T12:13:09.106Z,63.06
2016-08-07T12:14:22.495Z,63.87
2016-08-07T12:15:35.488Z,63.94
2016-08-07T12:16:48.488Z,66.27
2016-08-07T12:18:01.667Z,64.32
2016-08-07T12:19:14.868Z,65.01
2016-08-07T12:20:27.862Z,65.2
2016-08-07T12:21:41.066Z,65.92
2016-08-07T12:22:54.047Z,64.84
2016-08-07T12:25:19.296Z,66.11
2016-08-07T12:26:32.297Z,65.23
2016-08-07T12:27:45.282Z,63.87
2016-08-07T12:28:58.280Z,64.94
2016-08-07T12:30:11.291Z,65.82
2016-08-07T12:31:24.285Z,63.19
2016-08-07T12:32:37.277Z,65.04
2016-08-07T12:33:50.275Z,64.75
2016-08-07T12:35:03.465Z,65.04
2016-08-07T12:36:16.454Z,65.72
2016-08-07T12:37:29.658Z,66.11
2016-08-07T12:38:42.646Z,62.93
2016-08-07T12:39:55.652Z,61.05
2016-08-07T12:41:08.643Z,65.53
2016-08-07T12:42:21.626Z,61.34
2016-08-07T12:43:34.651Z,63.16
2016-08-07T12:44:47.634Z,63.45
2016-08-07T12:46:01.034Z,62.77
2016-08-07T12:47:14.698Z,63.35
2016-08-07T12:48:28.224Z,63.45
2016-08-07T12:49:41.488Z,62.09
2016-08-07T12:50:54.686Z,60.63
2016-08-07T12:52:07.665Z,63.16
2016-08-07T12:53:20.641Z,62.93
2016-08-07T12:54:33.627Z,61.99
2016-08-07T12:55:46.613Z,60.41
2016-08-07T12:56:59.592Z,63.23
2016-08-07T12:58:12.584Z,62.26
2016-08-07T12:59:25.579Z,62.45
2016-08-07T13:00:38.568Z,65.66
2016-08-07T13:01:51.555Z,62.74
2016-08-07T13:03:04.553Z,63.52
2016-08-07T13:04:17.743Z,63.75
2016-08-07T13:05:30.733Z,61.6
2016-08-07T13:06:43.726Z,65.37
2016-08-07T13:07:56.907Z,66.05
2016-08-07T13:09:09.897Z,66.21
2016-08-07T13:10:21.493Z,65.82
2016-08-07T13:11:34.471Z,65.33
2016-08-07T13:12:47.651Z,65.63
2016-08-07T13:14:00.632Z,65.53
2016-08-07T13:15:13.624Z,65.63
2016-08-07T13:16:26.622Z,66.11
2016-08-07T13:17:39.613Z,67.08
2016-08-07T13:18:52.652Z,66.79
2016-08-07T13:20:05.641Z,66.21
2016-08-07T13:21:18.635Z,66.11
2016-08-07T13:22:31.625Z,67.08
2016-08-07T13:23:44.615Z,65.43
2016-08-07T13:24:57.608Z,62.61
2016-08-07T13:26:10.599Z,66.99
2016-08-07T13:27:23.579Z,64.95
2016-08-07T13:28:36.570Z,67.76
2016-08-07T13:29:49.553Z,66.02
2016-08-07T13:31:02.552Z,66.02
2016-08-07T13:32:15.542Z,66.31
2016-08-07T13:33:28.544Z,64.85
2016-08-07T13:34:41.735Z,66.99
2016-08-07T13:35:54.736Z,65.95
2016-08-07T13:37:07.719Z,68.15
2016-08-07T13:38:20.901Z,67.11
2016-08-07T13:39:33.418Z,68.84
2016-08-07T13:40:46.610Z,69.32
2016-08-07T13:41:59.596Z,67.28
2016-08-07T13:43:12.779Z,67.08
2016-08-07T13:44:25.975Z,70
2016-08-07T13:45:39.706Z,71.72
2016-08-07T13:46:53.300Z,69.48
2016-08-07T13:48:06.854Z,70.55
2016-08-07T13:49:20.628Z,70.45
2016-08-07T13:50:34.320Z,70.87
2016-08-07T13:51:47.549Z,67.86
2016-08-07T13:53:01.305Z,67.86
2016-08-07T13:54:14.950Z,70
2016-08-07T13:55:27.526Z,68.84
2016-08-07T13:56:41.031Z,65.72
2016-08-07T13:57:54.435Z,67.8
2016-08-07T13:59:08.043Z,66.73
2016-08-07T14:00:21.537Z,67.31
2016-08-07T14:01:35.031Z,66.05
2016-08-07T14:02:48.509Z,67.31
2016-08-07T14:04:01.952Z,66.93
2016-08-07T14:05:15.400Z,68.67
2016-08-07T14:06:28.890Z,67.21
2016-08-07T14:07:42.521Z,68.29
2016-08-07T14:08:56.174Z,67.38
2016-08-07T14:10:09.708Z,68.48
2016-08-07T14:11:23.015Z,69.32
2016-08-07T14:12:36.572Z,70.2
2016-08-07T14:13:49.734Z,69.22
2016-08-07T14:15:02.712Z,68.15
2016-08-07T14:16:16.003Z,70.87
2016-08-07T14:17:29.455Z,68.25
2016-08-07T14:18:42.697Z,69.81
2016-08-07T14:19:55.695Z,68.93
2016-08-07T14:21:08.855Z,69.03
2016-08-07T14:22:22.543Z,69.32
2016-08-07T14:23:35.524Z,69.9
2016-08-07T14:24:48.512Z,70.29
2016-08-07T14:26:01.501Z,69.42
2016-08-07T14:27:14.481Z,70.39
2016-08-07T14:28:27.464Z,70.29
2016-08-07T14:29:40.663Z,68.54
2016-08-07T14:30:53.655Z,71.85
2016-08-07T14:32:06.645Z,69.94
2016-08-07T14:33:19.631Z,70.1
2016-08-07T14:34:32.616Z,69.32
2016-08-07T14:35:45.602Z,67.76
2016-08-07T14:36:58.588Z,68.77
2016-08-07T14:38:11.642Z,69.22
2016-08-07T14:39:24.955Z,70.1
2016-08-07T14:40:37.482Z,70.29
2016-08-07T14:41:50.639Z,69.22
2016-08-07T14:43:04.074Z,70.1
2016-08-07T14:44:17.373Z,69.58
2016-08-07T14:45:30.904Z,69.09
2016-08-07T14:46:44.359Z,70.1
2016-08-07T14:47:57.971Z,71.75
2016-08-07T14:49:11.275Z,70.58
2016-08-07T14:50:24.600Z,69.87
2016-08-07T14:51:37.983Z,70.06
2016-08-07T14:52:51.335Z,70.16
2016-08-07T14:54:05.036Z,69.19
2016-08-07T14:55:18.336Z,70.12
2016-08-07T14:56:31.611Z,69.84
2016-08-07T14:57:45.126Z,71
2016-08-07T14:58:58.473Z,68.57
2016-08-07T15:00:11.658Z,69.74
2016-08-07T15:01:24.836Z,71.1
2016-08-07T15:02:38.135Z,70.9
2016-08-07T15:03:51.287Z,69.93
2016-08-07T15:05:04.472Z,72.07
2016-08-07T15:06:17.839Z,71.58
2016-08-07T15:07:31.540Z,71.48
2016-08-07T15:08:44.832Z,71.1
2016-08-07T15:09:57.919Z,71.78
2016-08-07T15:11:10.897Z,70.03
2016-08-07T15:12:24.027Z,70.51
2016-08-07T15:13:37.366Z,69.06
2016-08-07T15:14:51.010Z,70.42
2016-08-07T15:16:04.651Z,71.1
2016-08-07T15:17:18.288Z,69.93
2016-08-07T15:18:31.891Z,70.61
2016-08-07T15:19:45.577Z,72.85
2016-08-07T15:20:59.233Z,71.88
2016-08-07T15:22:12.458Z,71.78
2016-08-07T15:23:26.068Z,71.97
2016-08-07T15:24:39.402Z,71.58
2016-08-07T15:25:51.914Z,71.58
2016-08-07T15:27:04.905Z,70.67
2016-08-07T15:28:17.906Z,71.48
2016-08-07T15:29:30.887Z,71.55
2016-08-07T15:30:44.981Z,71.45
2016-08-07T15:31:58.156Z,71.16
2016-08-07T15:33:11.140Z,71.26
2016-08-07T15:34:24.328Z,70.48
2016-08-07T15:35:37.538Z,71.55
2016-08-07T15:36:50.993Z,72.33
2016-08-07T15:38:04.296Z,73.39
2016-08-07T15:39:17.283Z,74.65
2016-08-07T15:40:30.266Z,72.61
2016-08-07T15:41:43.237Z,74.65
2016-08-07T15:42:56.223Z,72.91
2016-08-07T15:44:09.201Z,73.55
2016-08-07T15:45:22.192Z,73.16
2016-08-07T15:46:35.375Z,72.87
2016-08-07T15:47:48.353Z,73.16
2016-08-07T15:49:01.820Z,72.87
2016-08-07T15:50:15.267Z,73.94
2016-08-07T15:51:28.814Z,73.46
2016-08-07T15:52:42.293Z,71.7
2016-08-07T15:53:55.666Z,73.26
2016-08-07T15:55:08.996Z,72.77
2016-08-07T15:56:22.560Z,73.55
2016-08-07T15:57:36.073Z,73.07
2016-08-07T15:58:49.808Z,73.36
2016-08-07T16:00:03.441Z,73.36
2016-08-07T16:01:16.995Z,72.49
2016-08-07T16:02:29.987Z,72.97
2016-08-07T16:03:42.970Z,73.65
2016-08-07T16:04:55.953Z,72.87
2016-08-07T16:06:08.933Z,72.58
2016-08-07T16:07:21.906Z,72.19
2016-08-07T16:08:35.090Z,74.81
2016-08-07T16:09:48.073Z,73.84
2016-08-07T16:11:00.391Z,72.74
2016-08-07T16:12:13.371Z,73.84